Time;durP1;ratioP1;P1;durP2;ratioP2;P2;SDS_P1;SDS_P2;PMS_P1;PMS_P2;Temp;Humidity;BMP_temperature;BMP_pressure;BME280_temperature;BME280_humidity;BME280_pressure;Samples;Min_cycle;Max_cycle;Signal;HPM_P1;HPM_P2
2023/04/17 00:04:39;;;;;;;;;;;;;;;5.05;100.00;95927.66;10566093;28;1990;-76
2023/04/17 00:09:42;;;;;;;;;;;;;;;4.84;100.00;95924.56;10560979;28;2065;-77
2023/04/17 00:14:45;;;;;;;;;;;;;;;4.68;100.00;95917.25;10567872;27;2005;-76
2023/04/17 00:19:49;;;;;;;;;;;;;;;4.51;100.00;95927.78;10549003;28;2026;-76
2023/04/17 00:24:51;;;;;;;;;;;;;;;4.45;100.00;95925.25;10571506;27;2028;-76
2023/04/17 00:29:54;;;;;;;;;;;;;;;4.38;100.00;95935.19;10566773;27;2061;-76
2023/04/17 00:34:56;;;;;;;;;;;;;;;4.32;100.00;95935.06;10568789;28;2058;-76
2023/04/17 00:39:59;;;;;;;;;;;;;;;4.46;100.00;95929.56;10565106;28;2065;-76
2023/04/17 00:45:04;;;;;;;;;;;;;;;4.68;100.00;95938.56;10584556;27;2113;-76
2023/04/17 00:50:06;;;;;;;;;;;;;;;4.95;100.00;95928.22;10566782;28;2048;-75
2023/04/17 00:55:09;;;;;;;;;;;;;;;5.14;100.00;95923.56;10561686;27;2006;-77
2023/04/17 01:00:13;;;;;;;;;;;;;;;5.31;100.00;95912.97;10569027;27;2147;-76
2023/04/17 01:05:15;;;;;;;;;;;;;;;5.45;100.00;95906.31;10567263;27;2038;-75
2023/04/17 01:10:28;;;;;;;;;;;;;;;5.30;100.00;95903.38;10563451;28;2096;-74
2023/04/17 01:15:31;;;;;;;;;;;;;;;5.28;100.00;95894.78;10567192;27;2021;-74
2023/04/17 01:20:33;;;;;;;;;;;;;;;5.17;100.00;95904.44;10562974;28;2057;-77
2023/04/17 01:25:36;;;;;;;;;;;;;;;5.17;100.00;95904.44;10572037;27;2014;-77
2023/04/17 01:30:38;;;;;;;;;;;;;;;5.16;100.00;95908.16;10575695;27;2057;-76
2023/04/17 01:35:41;;;;;;;;;;;;;;;5.18;100.00;95915.91;10568540;28;2033;-76
2023/04/17 01:40:44;;;;;;;;;;;;;;;5.20;100.00;95911.97;10591343;27;1990;-76
2023/04/17 01:45:47;;;;;;;;;;;;;;;5.21;100.00;95921.56;10549831;28;2114;-75
2023/04/17 01:50:49;;;;;;;;;;;;;;;5.27;100.00;95920.63;10561020;28;2290;-76
2023/04/17 01:55:53;;;;;;;;;;;;;;;5.39;100.00;95912.59;10578001;28;2041;-76
2023/04/17 02:00:56;;;;;;;;;;;;;;;5.43;100.00;95913.75;10569747;28;2078;-76
2023/04/17 02:05:58;;;;;;;;;;;;;;;5.46;100.00;95915.13;10565710;28;2005;-76
2023/04/17 02:11:01;;;;;;;;;;;;;;;5.42;100.00;95912.94;10560130;28;2364;-76
2023/04/17 02:16:03;;;;;;;;;;;;;;;5.58;100.00;95899.88;10573096;28;2034;-76
2023/04/17 02:21:07;;;;;;;;;;;;;;;5.51;100.00;95917.88;10577410;27;1987;-76
2023/04/17 02:26:11;;;;;;;;;;;;;;;5.66;100.00;95923.50;10577480;27;2053;-76
2023/04/17 02:31:13;;;;;;;;;;;;;;;5.76;100.00;95917.56;10574432;28;2419;-76
2023/04/17 02:36:16;;;;;;;;;;;;;;;5.63;100.00;95911.47;10583029;27;2049;-75
2023/04/17 02:41:19;;;;;;;;;;;;;;;5.76;100.00;95918.34;10570118;28;2082;-76
2023/04/17 02:46:22;;;;;;;;;;;;;;;5.74;100.00;95909.00;10564337;27;2033;-76
2023/04/17 02:51:25;;;;;;;;;;;;;;;5.84;100.00;95915.28;10571837;28;2090;-76
2023/04/17 02:56:28;;;;;;;;;;;;;;;5.91;100.00;95915.97;10580890;27;2042;-77
2023/04/17 03:01:32;;;;;;;;;;;;;;;5.94;100.00;95907.50;10574427;27;2035;-76
2023/04/17 03:06:37;;;;;;;;;;;;;;;5.95;100.00;95909.13;10572932;28;2214;-78
2023/04/17 03:11:39;;;;;;;;;;;;;;;5.97;100.00;95898.19;10570792;27;2117;-76
2023/04/17 03:16:42;;;;;;;;;;;;;;;5.94;100.00;95899.50;10574025;27;2035;-76
2023/04/17 03:21:45;;;;;;;;;;;;;;;6.07;100.00;95894.91;10574064;28;2049;-77
2023/04/17 03:26:48;;;;;;;;;;;;;;;5.99;100.00;95903.31;10572644;28;2392;-75
2023/04/17 03:31:50;;;;;;;;;;;;;;;6.07;100.00;95910.91;10559322;28;2015;-77
2023/04/17 03:36:52;;;;;;;;;;;;;;;6.17;100.00;95903.91;10570297;27;2120;-76
2023/04/17 03:41:55;;;;;;;;;;;;;;;6.17;100.00;95903.06;10572787;28;2053;-76
2023/04/17 03:46:57;;;;;;;;;;;;;;;6.07;100.00;95902.91;10569370;27;2471;-76
2023/04/17 03:52:02;;;;;;;;;;;;;;;6.03;100.00;95913.25;10567480;28;2085;-75
2023/04/17 03:57:05;;;;;;;;;;;;;;;5.91;100.00;95921.31;10570661;28;2041;-78
2023/04/17 04:02:08;;;;;;;;;;;;;;;5.90;100.00;95918.88;10564973;28;2069;-76
2023/04/17 04:07:12;;;;;;;;;;;;;;;5.86;100.00;95937.22;10567581;27;2041;-77
2023/04/17 04:12:15;;;;;;;;;;;;;;;6.01;100.00;95938.56;10563649;28;2399;-76
2023/04/17 04:17:17;;;;;;;;;;;;;;;6.14;100.00;95930.25;10574405;27;1998;-75
2023/04/17 04:22:21;;;;;;;;;;;;;;;6.10;100.00;95929.09;10568895;27;2072;-76
2023/04/17 04:27:23;;;;;;;;;;;;;;;6.13;100.00;95931.31;10567535;28;2002;-76
2023/04/17 04:32:26;;;;;;;;;;;;;;;6.13;100.00;95934.78;10564884;28;2117;-76
2023/04/17 04:37:30;;;;;;;;;;;;;;;6.23;100.00;95926.13;10572214;27;2110;-76
2023/04/17 04:42:32;;;;;;;;;;;;;;;6.24;100.00;95925.09;10566380;28;2069;-75
2023/04/17 04:47:35;;;;;;;;;;;;;;;6.26;100.00;95928.31;10568080;27;1986;-76
2023/04/17 04:52:37;;;;;;;;;;;;;;;6.42;100.00;95926.69;10560281;27;2126;-77
2023/04/17 04:57:40;;;;;;;;;;;;;;;6.33;100.00;95923.63;10568226;28;2050;-77
2023/04/17 05:02:43;;;;;;;;;;;;;;;6.35;100.00;95921.50;10564978;28;2053;-76
2023/04/17 05:07:46;;;;;;;;;;;;;;;6.48;100.00;95941.75;10565398;28;2041;-76
2023/04/17 05:12:49;;;;;;;;;;;;;;;6.59;100.00;95951.53;10568533;27;2051;-78
2023/04/17 05:17:54;;;;;;;;;;;;;;;6.78;100.00;95949.41;10564846;28;2106;-77
2023/04/17 05:22:56;;;;;;;;;;;;;;;6.72;100.00;95950.41;10555604;28;2022;-77
2023/04/17 05:27:59;;;;;;;;;;;;;;;6.71;100.00;95948.78;10567597;28;1966;-75
2023/04/17 05:33:01;;;;;;;;;;;;;;;7.07;100.00;95943.94;10563610;27;2052;-73
2023/04/17 05:38:06;;;;;;;;;;;;;;;7.20;100.00;95954.28;10568961;28;2019;-78
2023/04/17 05:43:09;;;;;;;;;;;;;;;7.30;100.00;95955.19;10573176;27;2068;-79
2023/04/17 05:48:11;;;;;;;;;;;;;;;7.35;100.00;95949.13;10560986;28;1961;-73
2023/04/17 05:53:15;;;;;;;;;;;;;;;7.26;100.00;95959.44;10559796;28;2053;-75
2023/04/17 05:58:18;;;;;;;;;;;;;;;7.41;100.00;95960.69;10559119;28;2082;-74
2023/04/17 06:03:23;;;;;;;;;;;;;;;7.11;100.00;95969.13;10557652;28;2053;-74
2023/04/17 06:08:26;;;;;;;;;;;;;;;7.24;100.00;95966.88;10561024;28;2073;-74
2023/04/17 06:13:29;;;;;;;;;;;;;;;7.39;100.00;95968.16;10564967;28;1988;-75
2023/04/17 06:18:31;;;;;;;;;;;;;;;7.46;100.00;95974.94;10568521;28;2069;-74
2023/04/17 06:23:34;;;;;;;;;;;;;;;7.25;100.00;95986.41;10558677;28;2006;-75
2023/04/17 06:28:37;;;;;;;;;;;;;;;7.22;100.00;95984.25;10568192;28;2006;-75
2023/04/17 06:33:39;;;;;;;;;;;;;;;7.26;100.00;95991.53;10562206;28;2130;-74
2023/04/17 06:38:42;;;;;;;;;;;;;;;7.50;100.00;95992.09;10564932;28;2057;-76
2023/04/17 06:43:45;;;;;;;;;;;;;;;7.89;100.00;95978.66;10564084;28;2053;-74
2023/04/17 06:48:50;;;;;;;;;;;;;;;8.09;100.00;95981.53;10554044;28;1990;-77
2023/04/17 06:53:54;;;;;;;;;;;;;;;7.80;100.00;95985.50;10567360;28;2100;-77
2023/04/17 06:58:56;;;;;;;;;;;;;;;7.97;100.00;95988.91;10563904;28;2074;-77
2023/04/17 07:03:59;;;;;;;;;;;;;;;7.92;100.00;95998.75;10564224;28;2116;-77
2023/04/17 07:09:02;;;;;;;;;;;;;;;7.62;100.00;95993.84;10574647;27;2080;-76
2023/04/17 07:14:05;;;;;;;;;;;;;;;7.91;100.00;95984.56;10572424;28;2037;-77
2023/04/17 07:19:09;;;;;;;;;;;;;;;7.77;100.00;95991.34;10568803;28;2106;-77
2023/04/17 07:24:12;;;;;;;;;;;;;;;7.82;100.00;95999.41;10560430;28;2016;-76
2023/04/17 07:29:15;;;;;;;;;;;;;;;8.05;100.00;95993.78;10558571;28;2053;-77
2023/04/17 07:34:17;;;;;;;;;;;;;;;8.09;100.00;95994.91;10571426;27;2009;-76
2023/04/17 07:39:19;;;;;;;;;;;;;;;7.70;100.00;96004.94;10565302;28;2079;-77
2023/04/17 07:44:22;;;;;;;;;;;;;;;7.79;100.00;96016.00;10566038;28;1997;-77
2023/04/17 07:49:25;;;;;;;;;;;;;;;7.60;100.00;96020.84;10566840;27;2137;-77
2023/04/17 07:54:27;;;;;;;;;;;;;;;7.72;100.00;96026.88;10566841;27;2017;-77
2023/04/17 07:59:29;;;;;;;;;;;;;;;7.91;100.00;96018.53;10559721;28;2098;-76
2023/04/17 08:04:32;;;;;;;;;;;;;;;8.04;100.00;96028.84;10559624;27;2065;-75
2023/04/17 08:09:36;;;;;;;;;;;;;;;8.30;100.00;96021.91;10562803;27;2069;-74
2023/04/17 08:14:39;;;;;;;;;;;;;;;7.97;100.00;96031.72;10553629;28;2026;-77
2023/04/17 08:19:42;;;;;;;;;;;;;;;8.07;100.00;96039.84;10558565;28;2034;-77
2023/04/17 08:24:45;;;;;;;;;;;;;;;7.59;100.00;96033.41;10561529;28;2058;-78
2023/04/17 08:29:48;;;;;;;;;;;;;;;7.51;100.00;96049.91;10555104;27;2132;-78
2023/04/17 08:34:50;;;;;;;;;;;;;;;7.90;100.00;96049.84;10556452;28;2091;-80
2023/04/17 08:39:53;;;;;;;;;;;;;;;8.01;100.00;96046.22;10554423;27;2070;-77
2023/04/17 08:44:56;;;;;;;;;;;;;;;7.60;100.00;96039.56;10555362;28;2218;-78
2023/04/17 08:49:59;;;;;;;;;;;;;;;8.04;100.00;96048.41;10555706;28;2013;-79
2023/04/17 08:55:02;;;;;;;;;;;;;;;8.43;100.00;96037.59;10569254;27;2155;-77
2023/04/17 09:00:10;;;;;;;;;;;;;;;8.95;100.00;96034.28;10575708;28;2009;-78
2023/04/17 09:05:23;;;;;;;;;;;;;;;9.17;100.00;96034.19;10571123;27;1975;-77
2023/04/17 09:10:26;;;;;;;;;;;;;;;10.13;100.00;96033.06;10559282;28;1986;-78
2023/04/17 09:15:29;;;;;;;;;;;;;;;10.34;100.00;96026.69;10561240;27;2058;-80
2023/04/17 09:20:32;;;;;;;;;;;;;;;10.70;100.00;96022.16;10559921;27;2296;-78
2023/04/17 09:25:34;;;;;;;;;;;;;;;11.87;100.00;96013.13;10561639;28;2041;-77
2023/04/17 09:30:37;;;;;;;;;;;;;;;11.93;100.00;96009.31;10544125;28;2128;-77
2023/04/17 09:35:40;;;;;;;;;;;;;;;12.40;100.00;96006.09;10561494;27;2019;-76
2023/04/17 09:40:44;;;;;;;;;;;;;;;12.03;100.00;96011.97;10566397;27;2131;-76
2023/04/17 09:45:47;;;;;;;;;;;;;;;13.16;100.00;96007.41;10563239;27;2142;-77
2023/04/17 09:50:49;;;;;;;;;;;;;;;13.30;100.00;96018.41;10562399;28;2046;-78
2023/04/17 09:55:54;;;;;;;;;;;;;;;12.49;100.00;96011.72;10558764;27;2262;-77
2023/04/17 10:00:57;;;;;;;;;;;;;;;12.87;100.00;96017.41;10558597;27;2012;-76
2023/04/17 10:06:00;;;;;;;;;;;;;;;12.95;100.00;96012.19;10558354;28;2008;-75
2023/04/17 10:11:02;;;;;;;;;;;;;;;11.50;100.00;96016.97;10559545;28;2089;-78
2023/04/17 10:16:05;;;;;;;;;;;;;;;11.33;100.00;96011.09;10536982;28;2222;-77
2023/04/17 10:21:10;;;;;;;;;;;;;;;11.25;100.00;96007.06;10555377;28;2256;-78
2023/04/17 10:26:13;;;;;;;;;;;;;;;10.59;100.00;95999.03;10559485;28;2212;-78
2023/04/17 10:31:16;;;;;;;;;;;;;;;11.40;100.00;95992.78;10558157;28;1994;-78
2023/04/17 10:36:19;;;;;;;;;;;;;;;11.55;100.00;95994.63;10555643;28;2485;-77
2023/04/17 10:41:23;;;;;;;;;;;;;;;11.85;100.00;96004.53;10554724;28;2029;-78
2023/04/17 10:46:25;;;;;;;;;;;;;;;12.32;100.00;95981.63;10563709;28;2105;-76
2023/04/17 10:51:28;;;;;;;;;;;;;;;11.81;100.00;95990.78;10566767;27;2057;-77
2023/04/17 10:56:32;;;;;;;;;;;;;;;11.98;100.00;95987.75;10564761;27;2119;-77
2023/04/17 11:01:34;;;;;;;;;;;;;;;11.56;100.00;95985.47;10540159;28;2092;-77
2023/04/17 11:06:38;;;;;;;;;;;;;;;10.82;100.00;95986.97;10564131;27;2069;-77
2023/04/17 11:11:41;;;;;;;;;;;;;;;10.94;100.00;95984.81;10562021;28;2025;-77
2023/04/17 11:16:46;;;;;;;;;;;;;;;10.75;100.00;95981.00;10546193;28;2084;-78
2023/04/17 11:21:48;;;;;;;;;;;;;;;10.76;100.00;95978.06;10564076;27;2089;-77
2023/04/17 11:26:51;;;;;;;;;;;;;;;10.87;100.00;95972.69;10567457;27;2125;-77
2023/04/17 11:31:53;;;;;;;;;;;;;;;11.69;100.00;95967.91;10564459;28;2065;-77
2023/04/17 11:36:56;;;;;;;;;;;;;;;11.63;100.00;95975.19;10565686;27;2211;-76
2023/04/17 11:41:58;;;;;;;;;;;;;;;11.70;100.00;95964.94;10564866;27;2069;-78
2023/04/17 11:47:00;;;;;;;;;;;;;;;12.33;100.00;95967.88;10565151;28;2025;-77
2023/04/17 11:52:03;;;;;;;;;;;;;;;12.45;100.00;95960.25;10546930;27;2073;-77
2023/04/17 11:57:06;;;;;;;;;;;;;;;12.23;100.00;95957.16;10562843;27;2672;-76
2023/04/17 12:02:09;;;;;;;;;;;;;;;12.08;100.00;95954.56;10563943;27;2201;-76
2023/04/17 12:07:12;;;;;;;;;;;;;;;11.80;100.00;95959.53;10564674;27;2034;-77
2023/04/17 12:12:15;;;;;;;;;;;;;;;12.27;100.00;95954.72;10563812;27;2104;-77
2023/04/17 12:17:17;;;;;;;;;;;;;;;12.79;100.00;95954.06;10564968;28;2013;-75
2023/04/17 12:22:20;;;;;;;;;;;;;;;12.78;100.00;95955.13;10566994;28;2114;-77
2023/04/17 12:27:23;;;;;;;;;;;;;;;12.31;100.00;95943.09;10562831;28;2006;-73
2023/04/17 12:32:25;;;;;;;;;;;;;;;11.89;100.00;95952.50;10566060;28;2241;-74
2023/04/17 12:37:29;;;;;;;;;;;;;;;12.29;100.00;95939.88;10551814;28;2284;-73
2023/04/17 12:42:32;;;;;;;;;;;;;;;12.94;100.00;95937.72;10568590;27;2033;-72
2023/04/17 12:47:44;;;;;;;;;;;;;;;13.21;100.00;95929.13;10572454;27;2296;-74
2023/04/17 12:52:47;;;;;;;;;;;;;;;12.26;100.00;95928.84;10571475;28;2099;-77
2023/04/17 12:57:50;;;;;;;;;;;;;;;11.73;100.00;95925.91;10567511;27;2074;-76
2023/04/17 13:02:52;;;;;;;;;;;;;;;11.68;100.00;95921.34;10561737;28;2139;-77
2023/04/17 13:07:55;;;;;;;;;;;;;;;11.26;100.00;95927.13;10568132;28;2126;-74
2023/04/17 13:12:58;;;;;;;;;;;;;;;11.69;100.00;95920.25;10565429;27;2032;-78
2023/04/17 13:18:04;;;;;;;;;;;;;;;11.26;100.00;95921.75;10569274;27;2116;-78
2023/04/17 13:23:07;;;;;;;;;;;;;;;11.14;100.00;95910.53;10576801;27;1994;-77
2023/04/17 13:28:09;;;;;;;;;;;;;;;11.21;100.00;95908.34;10568330;27;2053;-77
2023/04/17 13:33:12;;;;;;;;;;;;;;;11.86;100.00;95915.34;10563674;27;2126;-77
2023/04/17 13:38:14;;;;;;;;;;;;;;;12.75;100.00;95907.16;10569633;27;2041;-78
2023/04/17 13:43:18;;;;;;;;;;;;;;;13.72;100.00;95904.22;10564339;28;2045;-78
2023/04/17 13:48:20;;;;;;;;;;;;;;;13.58;100.00;95897.91;10563560;28;2192;-78
2023/04/17 13:53:23;;;;;;;;;;;;;;;12.75;100.00;95904.47;10562763;27;2120;-77
2023/04/17 13:58:27;;;;;;;;;;;;;;;12.47;100.00;95902.53;10562821;28;2022;-77
2023/04/17 14:03:30;;;;;;;;;;;;;;;11.53;100.00;95905.25;10553414;28;2053;-78
2023/04/17 14:08:33;;;;;;;;;;;;;;;11.48;100.00;95889.13;10572965;28;2009;-78
2023/04/17 14:13:36;;;;;;;;;;;;;;;12.61;100.00;95890.03;10543617;28;2110;-78
2023/04/17 14:18:39;;;;;;;;;;;;;;;13.95;98.82;95880.94;10567690;28;1998;-79
2023/04/17 14:23:42;;;;;;;;;;;;;;;13.68;96.94;95873.50;10575611;27;2033;-78
2023/04/17 14:28:44;;;;;;;;;;;;;;;13.50;98.49;95876.97;10577017;27;2038;-77
2023/04/17 14:33:47;;;;;;;;;;;;;;;13.39;100.00;95865.47;10569147;27;2546;-78
2023/04/17 14:38:52;;;;;;;;;;;;;;;13.92;99.00;95870.72;10560876;28;2196;-78
2023/04/17 14:43:54;;;;;;;;;;;;;;;13.26;100.00;95866.19;10567954;28;1980;-78
2023/04/17 14:48:57;;;;;;;;;;;;;;;13.07;100.00;95868.00;10560036;28;2025;-77
2023/04/17 14:53:59;;;;;;;;;;;;;;;12.99;100.00;95862.13;10578048;27;2371;-76
2023/04/17 14:59:06;;;;;;;;;;;;;;;12.56;100.00;95869.31;10560135;28;2014;-77
2023/04/17 15:04:08;;;;;;;;;;;;;;;12.76;100.00;95873.69;10571236;27;2009;-78
2023/04/17 15:09:11;;;;;;;;;;;;;;;13.07;100.00;95871.50;10572009;28;2079;-77
2023/04/17 15:14:14;;;;;;;;;;;;;;;12.69;100.00;95873.22;10571332;28;2203;-77
2023/04/17 15:19:17;;;;;;;;;;;;;;;12.33;100.00;95870.81;10571936;27;2068;-77
2023/04/17 15:24:22;;;;;;;;;;;;;;;12.27;100.00;95874.66;10571477;27;2091;-77
2023/04/17 15:29:25;;;;;;;;;;;;;;;12.15;100.00;95884.97;10564853;28;2038;-77
2023/04/17 15:34:27;;;;;;;;;;;;;;;11.65;100.00;95881.50;10561558;28;2101;-77
2023/04/17 15:39:30;;;;;;;;;;;;;;;11.16;100.00;95890.31;10570577;28;1994;-77
2023/04/17 15:44:34;;;;;;;;;;;;;;;10.43;100.00;95895.28;10574399;27;2053;-76
2023/04/17 15:49:36;;;;;;;;;;;;;;;10.31;100.00;95894.72;10585967;27;2034;-76
2023/04/17 15:54:39;;;;;;;;;;;;;;;9.92;100.00;95896.00;10571667;27;2379;-79
2023/04/17 15:59:43;;;;;;;;;;;;;;;9.64;100.00;95889.25;10574003;28;2010;-78
2023/04/17 16:04:46;;;;;;;;;;;;;;;9.62;100.00;95890.59;10569868;27;1985;-77
2023/04/17 16:09:49;;;;;;;;;;;;;;;9.59;100.00;95883.06;10571572;27;2077;-78
2023/04/17 16:14:52;;;;;;;;;;;;;;;9.61;100.00;95884.44;10574994;28;2018;-78
2023/04/17 16:19:55;;;;;;;;;;;;;;;9.73;100.00;95894.91;10570436;27;2123;-77
2023/04/17 16:24:58;;;;;;;;;;;;;;;9.31;100.00;95897.72;10565659;27;2063;-76
2023/04/17 16:30:01;;;;;;;;;;;;;;;9.35;100.00;95904.16;10569977;27;2046;-79
2023/04/17 16:35:04;;;;;;;;;;;;;;;9.24;100.00;95910.59;10567387;27;2045;-78
2023/04/17 16:40:06;;;;;;;;;;;;;;;9.19;100.00;95904.13;10568039;27;2556;-78
2023/04/17 16:45:09;;;;;;;;;;;;;;;9.05;100.00;95900.31;10566273;27;2139;-77
2023/04/17 16:50:21;;;;;;;;;;;;;;;9.05;100.00;95902.97;10575048;28;2085;-78
2023/04/17 16:55:26;;;;;;;;;;;;;;;9.00;100.00;95908.31;10576827;27;2065;-78
2023/04/17 17:00:30;;;;;;;;;;;;;;;9.12;100.00;95906.22;10568115;28;2022;-79
2023/04/17 17:05:33;;;;;;;;;;;;;;;9.08;100.00;95905.13;10569591;27;2033;-77
2023/04/17 17:10:36;;;;;;;;;;;;;;;9.07;100.00;95916.94;10575123;27;2083;-78
2023/04/17 17:15:38;;;;;;;;;;;;;;;8.86;100.00;95929.41;10575945;27;2108;-78
2023/04/17 17:20:40;;;;;;;;;;;;;;;8.87;100.00;95932.91;10572595;27;2136;-77
2023/04/17 17:25:53;;;;;;;;;;;;;;;8.96;100.00;95928.66;10567226;27;2009;-78
2023/04/17 17:30:56;;;;;;;;;;;;;;;8.98;100.00;95926.53;10571392;27;2072;-79
2023/04/17 17:35:59;;;;;;;;;;;;;;;9.10;100.00;95929.84;10575041;27;2371;-77
2023/04/17 17:41:03;;;;;;;;;;;;;;;9.11;100.00;95927.94;10577024;27;2037;-79
2023/04/17 17:46:05;;;;;;;;;;;;;;;9.05;100.00;95927.13;10570199;27;2196;-77
2023/04/17 17:51:08;;;;;;;;;;;;;;;9.03;100.00;95933.78;10568589;28;2041;-77
2023/04/17 17:56:10;;;;;;;;;;;;;;;8.77;100.00;95940.88;10569494;28;2447;-79
2023/04/17 18:01:13;;;;;;;;;;;;;;;8.54;100.00;95950.09;10564971;28;2053;-76
2023/04/17 18:06:16;;;;;;;;;;;;;;;8.11;100.00;95967.88;10568560;28;1991;-77
2023/04/17 18:11:18;;;;;;;;;;;;;;;7.75;100.00;95972.03;10564250;28;2013;-77
2023/04/17 18:16:21;;;;;;;;;;;;;;;7.50;100.00;95978.72;10546006;28;2253;-79
2023/04/17 18:21:23;;;;;;;;;;;;;;;7.37;100.00;95983.63;10547393;28;2099;-78
2023/04/17 18:26:27;;;;;;;;;;;;;;;7.30;100.00;95981.94;10563380;28;2221;-78
2023/04/17 18:31:29;;;;;;;;;;;;;;;7.31;100.00;95983.56;10565840;28;2048;-76
2023/04/17 18:36:32;;;;;;;;;;;;;;;7.26;100.00;95991.53;10557710;28;2051;-77
2023/04/17 18:41:35;;;;;;;;;;;;;;;7.23;100.00;96001.91;10562982;28;2154;-78
2023/04/17 18:46:37;;;;;;;;;;;;;;;7.12;100.00;96000.94;10544690;28;2283;-78
2023/04/17 18:51:46;;;;;;;;;;;;;;;7.08;100.00;96004.38;10568998;28;2043;-79
2023/04/17 18:56:48;;;;;;;;;;;;;;;7.05;100.00;96006.47;10548584;28;2080;-79
2023/04/17 19:01:51;;;;;;;;;;;;;;;7.13;100.00;96012.47;10566345;28;2400;-78
2023/04/17 19:06:54;;;;;;;;;;;;;;;7.09;100.00;96003.31;10578193;27;2275;-77
2023/04/17 19:11:57;;;;;;;;;;;;;;;7.24;100.00;96004.31;10568554;27;2014;-78
2023/04/17 19:17:00;;;;;;;;;;;;;;;7.22;100.00;96005.63;10571049;28;2112;-79
2023/04/17 19:22:03;;;;;;;;;;;;;;;7.28;100.00;96015.34;10565351;28;2061;-77
2023/04/17 19:27:05;;;;;;;;;;;;;;;7.24;100.00;96001.66;10566532;27;2458;-79
2023/04/17 19:32:08;;;;;;;;;;;;;;;7.27;100.00;96003.84;10551133;27;2140;-78
2023/04/17 19:37:11;;;;;;;;;;;;;;;7.24;100.00;96003.50;10572384;27;2058;-79
2023/04/17 19:42:15;;;;;;;;;;;;;;;7.23;100.00;96007.25;10568884;27;2061;-77
2023/04/17 19:47:18;;;;;;;;;;;;;;;7.29;100.00;96017.75;10563362;28;2076;-76
2023/04/17 19:52:21;;;;;;;;;;;;;;;7.28;100.00;96005.44;10569079;27;2041;-76
2023/04/17 19:57:24;;;;;;;;;;;;;;;7.34;100.00;95998.31;10565944;27;2172;-78
2023/04/17 20:02:26;;;;;;;;;;;;;;;7.37;100.00;96003.16;10561959;27;2037;-78
2023/04/17 20:07:29;;;;;;;;;;;;;;;7.31;100.00;95994.25;10563719;27;2036;-74
2023/04/17 20:12:32;;;;;;;;;;;;;;;7.28;100.00;95988.59;10569989;27;2062;-75
2023/04/17 20:17:34;;;;;;;;;;;;;;;7.27;100.00;95992.34;10561123;27;2093;-76
2023/04/17 20:22:38;;;;;;;;;;;;;;;7.25;100.00;95994.44;10560257;27;2018;-75
2023/04/17 20:27:40;;;;;;;;;;;;;;;7.19;100.00;96006.09;10563445;27;2074;-76
2023/04/17 20:32:44;;;;;;;;;;;;;;;7.21;100.00;95994.13;10563296;28;2011;-75
2023/04/17 20:37:47;;;;;;;;;;;;;;;7.21;100.00;95999.47;10565155;28;2007;-73
2023/04/17 20:42:50;;;;;;;;;;;;;;;7.26;100.00;96006.78;10543516;27;2063;-73
2023/04/17 20:47:52;;;;;;;;;;;;;;;7.24;100.00;96001.66;10567847;27;2075;-74
2023/04/17 20:52:58;;;;;;;;;;;;;;;7.28;100.00;95991.28;10570957;27;2124;-78
2023/04/17 20:58:01;;;;;;;;;;;;;;;7.34;100.00;95992.97;10562210;28;2433;-74
2023/04/17 21:03:03;;;;;;;;;;;;;;;7.36;100.00;95987.34;10561835;28;2088;-73
2023/04/17 21:08:06;;;;;;;;;;;;;;;7.30;100.00;95992.63;10566431;27;2078;-76
2023/04/17 21:13:08;;;;;;;;;;;;;;;7.35;100.00;95986.56;10558785;28;2033;-73
2023/04/17 21:18:11;;;;;;;;;;;;;;;7.40;100.00;95991.16;10567471;27;2046;-74
2023/04/17 21:23:14;;;;;;;;;;;;;;;7.32;100.00;95979.03;10567734;27;2168;-74
2023/04/17 21:28:17;;;;;;;;;;;;;;;7.33;100.00;95980.66;10566254;28;2051;-74
2023/04/17 21:33:20;;;;;;;;;;;;;;;7.30;100.00;95986.47;10561282;28;2137;-74
2023/04/17 21:38:22;;;;;;;;;;;;;;;7.27;100.00;95989.66;10563265;28;2066;-75
2023/04/17 21:43:25;;;;;;;;;;;;;;;7.28;100.00;95985.94;10562526;28;2018;-74
2023/04/17 21:48:27;;;;;;;;;;;;;;;7.24;100.00;95982.13;10563830;27;2027;-74
2023/04/17 21:53:30;;;;;;;;;;;;;;;7.21;100.00;95980.75;10574977;27;2064;-73
2023/04/17 21:58:33;;;;;;;;;;;;;;;7.21;100.00;95977.28;10559872;27;2336;-72
2023/04/17 22:03:35;;;;;;;;;;;;;;;7.25;100.00;95978.38;10562157;28;2347;-76
2023/04/17 22:08:38;;;;;;;;;;;;;;;7.26;100.00;95980.03;10568826;27;2319;-74
2023/04/17 22:13:41;;;;;;;;;;;;;;;7.16;100.00;95979.88;10572444;28;2424;-76
2023/04/17 22:18:44;;;;;;;;;;;;;;;7.22;100.00;95986.91;10557886;28;2347;-75
2023/04/17 22:23:49;;;;;;;;;;;;;;;7.18;100.00;95983.09;10569111;28;2515;-75
2023/04/17 22:28:51;;;;;;;;;;;;;;;7.10;100.00;95978.19;10560318;28;2277;-74
2023/04/17 22:33:55;;;;;;;;;;;;;;;6.98;100.00;95976.41;10563295;28;2256;-75
2023/04/17 22:38:58;;;;;;;;;;;;;;;6.94;100.00;95980.66;10566318;27;2347;-74
2023/04/17 22:44:02;;;;;;;;;;;;;;;6.89;100.00;95977.91;10574658;27;2388;-74
2023/04/17 22:49:06;;;;;;;;;;;;;;;6.90;100.00;95976.84;10574341;27;2319;-74
2023/04/17 22:54:08;;;;;;;;;;;;;;;6.88;100.00;95978.97;10568675;27;2337;-74
2023/04/17 22:59:24;;;;;;;;;;;;;;;6.78;100.00;95968.13;10565559;27;2278;-74
2023/04/17 23:04:27;;;;;;;;;;;;;;;6.84;100.00;95972.47;10569416;27;2283;-74
2023/04/17 23:09:34;;;;;;;;;;;;;;;6.82;100.00;95973.78;10575121;27;2292;-76
2023/04/17 23:14:36;;;;;;;;;;;;;;;6.77;100.00;95972.66;10582846;27;2343;-74
2023/04/17 23:19:39;;;;;;;;;;;;;;;6.67;100.00;95969.00;10578786;27;2380;-75
2023/04/17 23:24:41;;;;;;;;;;;;;;;6.63;100.00;95970.56;10574983;27;2281;-74
2023/04/17 23:29:45;;;;;;;;;;;;;;;6.57;100.00;95966.19;10568891;28;2370;-74
2023/04/17 23:34:48;;;;;;;;;;;;;;;6.53;100.00;95965.06;10570611;27;2295;-74
2023/04/17 23:39:50;;;;;;;;;;;;;;;6.43;100.00;95966.53;10548982;28;2375;-75
2023/04/17 23:44:53;;;;;;;;;;;;;;;6.41;100.00;95960.59;10571083;27;2284;-74
2023/04/17 23:49:56;;;;;;;;;;;;;;;6.35;100.00;95950.88;10570075;27;2282;-74
2023/04/17 23:55:02;;;;;;;;;;;;;;;6.32;100.00;95954.06;10568929;27;2473;-73
